Maytown, Washington
Current Conditions -  °F | °C
As of 6:54 AM on Sunday 23 Nov 2014 (Local Time) from KOLM Reporting Station
Overcast Overcast  
Wind Chill: 41°   Ceiling: 4400
Heat Index: 47°   Visibility: 10mi
Dew Point: 43°   Wind: 13mph
Humidity: 86%   Direction: 200°SSW
Pressure: 30.11"   Gusts: NA
Location:  46.9755°N, 122.872°W
Report Text: KOLM 231454Z AUTO 20011KT 10SM SCT033 BKN044 OVC050 08/06 A3011 RMK AO2 LTG DSNT NW RAB21E40 SLP199 P0000 60001 T00830061 56021 $
Loading
Personal Weather Stations






























Interactive Weather Map New forecast layout! Learn more

10-Day Weather Forecast

Advertisements
Track Severe Weather on mobile